x

Folly Island, Sc (fbis1) Weather Station

7:00pm - Wed 22nd Nov 2017 All times are EST. -5 hours from GMT.

  • Wind
    2mph, 3mph gusts
  • Air Temp 61°f
  • Sea Pressure 1017.5mb
  • Folly Island, Sc
  • Folly Island, Sc

More Historic Weather Station data

Upgrade to MSW Pro to gain access to the past 30 days of data for over 8000 Wavebouys and Weather Stations around the globe.

Join

Comparision Forecast

View Surf forecast
   
Wed 11/22 7:00pm 2 3 mph 1017.5mb 61f
6:00pm 2 3 mph 1017.2mb 62f
5:00pm 3 5 mph 1016.4mb 64f
4:00pm 7 10 mph 1015.9mb 66f
3:00pm 11 14 mph 1015.6mb 66f
2:00pm 11 15 mph 1015.4mb 65f
1:00pm 14 17 mph 1015.9mb 64f
12:00pm 10 13 mph 1016.6mb 63f
11:00am 10 14 mph 1017mb 63f
10:00am 7 9 mph 1017.7mb 62f
9:00am 5 7 mph 1017.1mb 61f
8:00am 5 7 mph 1016mb 60f
7:00am 6 9 mph 1015.2mb 60f
6:00am 6 8 mph 1014.9mb 61f
5:00am 7 10 mph 1014.2mb 61f
4:00am 7 10 mph 1014.2mb 62f
3:00am 3 5 mph 1014.1mb 61f
12:00am 7 8 mph 1015.8mb 63f
Tue 11/21 11:00pm 6 7 mph 1016.4mb 63f
10:00pm 7 7 mph 1016.2mb 64f
9:00pm 9 10 mph 1016.6mb 65f
8:00pm 6 9 mph 1016.3mb 63f
7:00pm 11 13 mph 1016.2mb 62f
6:00pm 15 16 mph 1016.6mb 62f
5:00pm 14 15 mph 1017.3mb 62f
4:00pm 14 17 mph 1017.5mb 62f
3:00pm 15 17 mph 1017.7mb 62f
2:00pm 14 15 mph 1018.6mb 62f
1:00pm 17 21 mph 1018.8mb 63f
12:00pm 18 21 mph 1019.9mb 63f
11:00am 11 13 mph 1021.4mb 62f
10:00am 10 13 mph 1022.1mb 60f
9:00am 13 14 mph 1022.4mb 59f
8:00am 13 16 mph 1022.2mb 57f
7:00am 10 11 mph 1022.2mb 56f
6:00am 11 13 mph 1022mb 56f
5:00am 8 9 mph 1022.1mb 55f
4:00am 6 8 mph 1022.2mb 55f
3:00am 8 10 mph 1022.2mb 55f
2:00am 8 9 mph 1022.5mb 53f
1:00am 11 13 mph 1022.8mb 56f
12:00am 10 11 mph 1023.4mb 59f
Mon 11/20 11:00pm 11 13 mph 1023.8mb 57f
10:00pm 8 10 mph 1024.7mb 57f
9:00pm 10 11 mph 1024.5mb 58f
8:00pm 10 11 mph 1024.6mb 57f
7:00pm 10 11 mph 1024.7mb 57f
6:00pm 13 15 mph 1024.4mb 57f
5:00pm 14 15 mph 1024.3mb 56f
4:00pm 11 13 mph 1024.3mb 56f
3:00pm 11 14 mph 1024.5mb 56f
2:00pm 11 15 mph 1024.5mb 56f
1:00pm 11 14 mph 1024.8mb 55f
12:00pm 13 15 mph 1025.3mb 54f
11:00am 11 15 mph 1025.5mb 52f
10:00am 15 18 mph 1025.5mb 52f
9:00am 15 18 mph 1025.2mb 51f
8:00am 15 18 mph 1024.3mb 50f
7:00am 13 16 mph 1023.5mb 48f
6:00am 16 18 mph 1022.7mb 49f
5:00am 16 18 mph 1022.2mb 48f
4:00am 13 15 mph 1021.3mb 48f
3:00am 14 15 mph 1021.1mb 49f
2:00am 14 17 mph 1020.7mb 50f
1:00am 13 16 mph 1020.4mb 51f
12:00am 7 9 mph 1019.2mb 51f
Sun 11/19 11:00pm 5 7 mph 1018.8mb 51f
10:00pm 5 8 mph 1018.3mb 53f
9:00pm 5 8 mph 1017.2mb 55f
8:00pm 6 9 mph 1016.4mb 55f
7:00pm 3 5 mph 1015.3mb 56f
6:00pm 3 5 mph 1014.1mb 58f
5:00pm 7 9 mph 1013mb 62f
4:00pm 9 15 mph 1012mb 65f
3:00pm 8 13 mph 1011.3mb 65f
2:00pm 9 13 mph 1011mb 65f
1:00pm 7 10 mph 1011mb 66f
12:00pm 11 18 mph 1011.3mb 64f
11:00am 9 16 mph 1011.6mb 63f
10:00am 13 18 mph 1011.4mb 62f
9:00am 11 16 mph 1010.7mb 63f
8:00am 10 16 mph 1009.7mb 62f
6:00am 9 13 mph 1008.9mb 64f
5:00am 17 23 mph 1007.7mb 65f
4:00am 17 22 mph 1007.6mb 65f
2:00am 24 26 mph 1008.2mb 65f